Aviation Digital Data Service (ADDS)

Output produced by METARs form (0730 UTC 03 August 2021)
found at http://www.aviationweather.gov/metar/data/
 
KMDT 030656Z 00000KT 10SM FEW075 FEW250 16/14 A3010 RMK AO2 SLP191 T01610139
KMDT 030556Z 00000KT 10SM FEW075 FEW250 17/13 A3010 RMK AO2 SLP191 T01720133 10244 20172 50004
KMDT 030456Z 00000KT 10SM FEW250 18/14 A3011 RMK AO2 SLP194 T01780139 402610167
KMDT 030356Z 00000KT 10SM FEW250 18/14 A3010 RMK AO2 SLP191 T01830144
KMDT 030256Z 00000KT 10SM CLR 19/14 A3009 RMK AO2 SLP187 T01890144 53013
KMDT 030156Z 00000KT 10SM CLR 20/16 A3007 RMK AO2 SLP182 T02000156
KMDT 030056Z 00000KT 10SM CLR 21/15 A3006 RMK AO2 SLP177 T02110150
KMDT 022356Z 00000KT 10SM FEW070 25/11 A3005 RMK AO2 SLP174 T02500111 10261 20239 53007
KMDT 022256Z 31005KT 10SM FEW050 SCT080 26/11 A3003 RMK AO2 SLP169 T02560111
KMDT 022156Z 31007KT 10SM SCT060 26/11 A3003 RMK AO2 SLP168 T02610111
KMDT 022056Z 28006KT 10SM SCT060 26/11 A3003 RMK AO2 SLP167 T02610111 56004
KMDT 021956Z 33009KT 10SM BKN060 26/12 A3003 RMK AO2 SLP168 T02610117
KMDT 021856Z 31007KT 10SM BKN055 26/12 A3004 RMK AO2 SLP170 T02610117
KMDT 021756Z 03006KT 10SM BKN050 25/12 A3004 RMK AO2 SLP171 T02500117 10250 20178 58001
KMDT 021656Z 33009KT 10SM SCT043 BKN050 23/12 A3004 RMK AO2 SLP173 T02330122
KMDT 021556Z 35007KT 310V020 10SM SCT036 23/13 A3005 RMK AO2 SLP174 T02330128
KMDT 021456Z 31014G18KT 10SM BKN033 22/13 A3004 RMK AO2 SLP173 T02170133 51013
KMDT 021441Z 34008KT 10SM BKN031 21/13 A3004 RMK AO2 T02060128
KMDT 021418Z 30010KT 10SM BKN027 21/13 A3004 RMK AO2 T02060133
KMDT 021356Z 33012KT 10SM FEW029 21/13 A3003 RMK AO2 SLP168 T02060133
KMDT 021256Z 30010KT 10SM CLR 19/14 A3002 RMK AO2 SLP166 T01940139
KMDT 021156Z 31007KT 10SM CLR 18/14 A3000 RMK AO2 SLP160 70076 T01780144 10178 20167 53023
KMDT 021056Z 32009KT 8SM CLR 17/14 A2998 RMK AO2 SLP150 T01670139
KMDT 020956Z 31008KT 9SM CLR 17/14 A2996 RMK AO2 SLP144 T01670139
KMDT 020856Z 31009KT 10SM CLR 17/14 A2994 RMK AO2 SLP136 T01670144 53011
KMDT 020756Z 31008KT 10SM FEW006 17/14 A2992 RMK AO2 SLP131 T01670144
KMDT 020656Z 30006KT 10SM FEW006 17/14 A2991 RMK AO2 SLP127 T01670144
KMDT 020556Z 33005KT 10SM FEW008 17/15 A2990 RMK AO2 SLP125 60000 T01720150 10189 20167 58001
KMDT 020456Z 31003KT 10SM FEW110 17/15 A2991 RMK AO2 SLP127 T01720150 402560172
KMDT 020356Z 00000KT 10SM FEW110 17/14 A2991 RMK AO2 SLP127 T01720144
KMDT 020256Z 00000KT 10SM FEW008 FEW100 18/15 A2991 RMK AO2 SLP126 60000 T01780150 51017
KMDT 020156Z 36004KT 10SM FEW007 BKN100 18/16 A2990 RMK AO2 SLP123 T01780156
KMDT 020056Z 00000KT 10SM FEW007 BKN100 18/16 A2987 RMK AO2 RAE07 TSE02 SLP115 TS MOVD NE P0000 T01830161
KMDT 020008Z 06003KT 10SM FEW043 BKN060 BKN080 18/16 A2986 RMK AO2 LTG DSNT E-S RAE07 TSE02 TS MOVD NE P0000 T01830161
KMDT 012356Z 04004KT 4SM -TSRA BR SCT034CB BKN044 OVC080 18/16 A2986 RMK AO2 PK WND 33028/2315 WSHFT 2309 SLP110 OCNL LTGICCC N-E AND SW TS N-NE AND SW MOV NE P0076 60076 T01830161 10250 20183 53016
KMDT 012347Z 05007KT 3SM -TSRA BR BKN030CB BKN037 OVC044 18/16 A2985 RMK AO2 PK WND 33028/2315 WSHFT 2309 OCNL LTGICCC OHD N-E AND SW TS OHD N-NE AND SW MOV NE P0073 T01830161
KMDT 012336Z 04007KT 1SM R13/4000VP6000FT +TSRA BR BKN018CB BKN026 OVC044 18/16 A2986 RMK AO2 PK WND 33028/2315 WSHFT 2309 OCNL LTGICCC N-NE TS N-NE MOV NE P0063 T01830161
KMDT 012325Z 36013G21KT 3/4SM R13/1800VP6000FT +TSRA BR FEW010 BKN039CB OVC046 18/17 A2986 RMK AO2 PK WND 33028/2315 WSHFT 2309 OCNL LTGICCC N-NE TS N-NE MOV NE P0011 T01830167
KMDT 012321Z 36015G28KT 1 1/2SM R13/1800VP6000FT +TSRA FEW018 BKN042CB OVC050 19/17 A2986 RMK AO2 PK WND 33028/2315 OCNL LTGICCC N-NE TS N-NE MOV NE P0000 T01940167
KMDT 012311Z 34020G26KT 10SM -TSRA SCT047CB BKN060 OVC100 23/17 A2985 RMK AO2 PK WND 32026/2310 PRESRR OCNL LTGICCC N-NE TS N-NE MOV NE P0000 T02330172
KMDT 012256Z 11006KT 10SM FEW065 BKN080 BKN110 OVC200 24/18 A2981 RMK AO2 LTG DSNT N AND NW SLP094 T02390183
KMDT 012156Z 13008KT 10SM FEW043 SCT080 BKN110 24/19 A2980 RMK AO2 SLP089 T02440189
KMDT 012056Z 13009KT 10SM FEW016 SCT080 SCT110 25/19 A2981 RMK AO2 SLP093 60000 T02500194 56016
KMDT 011956Z 13009KT 10SM FEW014 SCT080 BKN100 24/19 A2982 RMK AO2 SLP097 T02440189
KMDT 030524Z 0306/0406 00000KT P6SM FEW250 
     FM031600 14003KT P6SM OVC250